sensor_id;sensor_type;location;lat;lon;timestamp;pressure;altitude;pressure_sealevel;temperature;humidity
51999;BME280;38015;50.924;11.598;2022-07-23T00:00:42;99604.70;;;26.90;39.08
51999;BME280;38015;50.924;11.598;2022-07-23T00:03:11;99604.74;;;26.92;38.89
51999;BME280;38015;50.924;11.598;2022-07-23T00:05:45;99605.68;;;26.93;38.85
51999;BME280;38015;50.924;11.598;2022-07-23T00:08:12;99605.16;;;26.95;38.86
51999;BME280;38015;50.924;11.598;2022-07-23T00:10:42;99603.80;;;26.94;38.92
51999;BME280;38015;50.924;11.598;2022-07-23T00:13:13;99605.89;;;26.98;38.73
51999;BME280;38015;50.924;11.598;2022-07-23T00:15:43;99600.05;;;26.94;38.81
51999;BME280;38015;50.924;11.598;2022-07-23T00:18:13;99601.16;;;26.94;38.80
51999;BME280;38015;50.924;11.598;2022-07-23T00:20:45;99595.62;;;26.94;38.86
51999;BME280;38015;50.924;11.598;2022-07-23T00:23:14;99595.41;;;26.88;38.94
51999;BME280;38015;50.924;11.598;2022-07-23T00:25:44;99594.64;;;26.90;38.92
51999;BME280;38015;50.924;11.598;2022-07-23T00:28:14;99592.98;;;26.90;38.91
51999;BME280;38015;50.924;11.598;2022-07-23T00:30:45;99589.75;;;26.93;38.83
51999;BME280;38015;50.924;11.598;2022-07-23T00:33:15;99593.35;;;26.92;38.84
51999;BME280;38015;50.924;11.598;2022-07-23T00:35:45;99581.73;;;26.89;38.92
51999;BME280;38015;50.924;11.598;2022-07-23T00:38:15;99570.70;;;26.92;39.03
51999;BME280;38015;50.924;11.598;2022-07-23T00:40:46;99567.07;;;26.91;38.85
51999;BME280;38015;50.924;11.598;2022-07-23T00:43:16;99560.52;;;26.89;38.88
51999;BME280;38015;50.924;11.598;2022-07-23T00:45:47;99558.56;;;26.91;38.83
51999;BME280;38015;50.924;11.598;2022-07-23T00:48:16;99559.23;;;26.89;38.86
51999;BME280;38015;50.924;11.598;2022-07-23T00:50:47;99552.46;;;26.89;38.92
51999;BME280;38015;50.924;11.598;2022-07-23T00:53:17;99550.25;;;26.87;38.90
51999;BME280;38015;50.924;11.598;2022-07-23T00:55:48;99543.51;;;26.91;38.81
51999;BME280;38015;50.924;11.598;2022-07-23T00:58:18;99542.70;;;26.91;38.82
51999;BME280;38015;50.924;11.598;2022-07-23T01:00:48;99541.58;;;26.85;38.96
51999;BME280;38015;50.924;11.598;2022-07-23T01:03:19;99547.10;;;26.90;38.94
51999;BME280;38015;50.924;11.598;2022-07-23T01:05:49;99551.33;;;26.90;38.81
51999;BME280;38015;50.924;11.598;2022-07-23T01:08:20;99545.16;;;26.83;39.01
51999;BME280;38015;50.924;11.598;2022-07-23T01:10:52;99540.87;;;26.90;38.86
51999;BME280;38015;50.924;11.598;2022-07-23T01:13:20;99539.00;;;26.87;38.86
51999;BME280;38015;50.924;11.598;2022-07-23T01:15:50;99544.60;;;26.87;38.88
51999;BME280;38015;50.924;11.598;2022-07-23T01:18:21;99541.47;;;26.85;38.91
51999;BME280;38015;50.924;11.598;2022-07-23T01:20:51;99541.31;;;26.89;38.80
51999;BME280;38015;50.924;11.598;2022-07-23T01:23:21;99535.11;;;26.87;38.87
51999;BME280;38015;50.924;11.598;2022-07-23T01:25:56;99529.56;;;26.89;38.79
51999;BME280;38015;50.924;11.598;2022-07-23T01:28:22;99521.16;;;26.84;38.89
51999;BME280;38015;50.924;11.598;2022-07-23T01:30:52;99513.74;;;26.84;38.90
51999;BME280;38015;50.924;11.598;2022-07-23T01:33:22;99508.85;;;26.87;38.88
51999;BME280;38015;50.924;11.598;2022-07-23T01:35:52;99511.33;;;26.87;38.84
51999;BME280;38015;50.924;11.598;2022-07-23T01:38:23;99519.13;;;26.86;38.87
51999;BME280;38015;50.924;11.598;2022-07-23T01:40:54;99520.48;;;26.88;38.80
51999;BME280;38015;50.924;11.598;2022-07-23T01:43:24;99522.79;;;26.89;38.77
51999;BME280;38015;50.924;11.598;2022-07-23T01:45:54;99523.25;;;26.87;38.93
51999;BME280;38015;50.924;11.598;2022-07-23T01:48:24;99525.67;;;26.86;38.88
51999;BME280;38015;50.924;11.598;2022-07-23T01:50:55;99529.08;;;26.88;38.79
51999;BME280;38015;50.924;11.598;2022-07-23T01:53:25;99533.51;;;26.92;38.69
51999;BME280;38015;50.924;11.598;2022-07-23T01:55:55;99533.54;;;26.89;38.76
51999;BME280;38015;50.924;11.598;2022-07-23T01:58:26;99538.45;;;26.88;38.82
51999;BME280;38015;50.924;11.598;2022-07-23T02:00:56;99542.75;;;26.87;38.81
51999;BME280;38015;50.924;11.598;2022-07-23T02:03:27;99543.09;;;26.82;38.94
51999;BME280;38015;50.924;11.598;2022-07-23T02:05:59;99543.49;;;26.88;38.77
51999;BME280;38015;50.924;11.598;2022-07-23T02:08:27;99538.09;;;26.88;38.74
51999;BME280;38015;50.924;11.598;2022-07-23T02:10:57;99537.87;;;26.85;38.86
51999;BME280;38015;50.924;11.598;2022-07-23T02:13:28;99537.36;;;26.87;38.79
51999;BME280;38015;50.924;11.598;2022-07-23T02:15:58;99535.19;;;26.91;38.72
51999;BME280;38015;50.924;11.598;2022-07-23T02:18:28;99533.61;;;26.89;38.75
51999;BME280;38015;50.924;11.598;2022-07-23T02:20:59;99536.47;;;26.93;38.61
51999;BME280;38015;50.924;11.598;2022-07-23T02:23:29;99535.93;;;26.88;38.72
51999;BME280;38015;50.924;11.598;2022-07-23T02:26:00;99533.83;;;26.89;38.71
51999;BME280;38015;50.924;11.598;2022-07-23T02:28:30;99539.26;;;26.86;38.74
51999;BME280;38015;50.924;11.598;2022-07-23T02:31:00;99542.85;;;26.86;38.74
51999;BME280;38015;50.924;11.598;2022-07-23T02:33:31;99547.14;;;26.91;38.61
51999;BME280;38015;50.924;11.598;2022-07-23T02:36:01;99546.80;;;26.90;38.70
51999;BME280;38015;50.924;11.598;2022-07-23T02:38:31;99545.03;;;26.88;38.68
51999;BME280;38015;50.924;11.598;2022-07-23T02:41:01;99526.32;;;26.82;38.83
51999;BME280;38015;50.924;11.598;2022-07-23T02:43:31;99516.08;;;26.89;38.67
51999;BME280;38015;50.924;11.598;2022-07-23T02:46:02;99527.70;;;26.88;38.72
51999;BME280;38015;50.924;11.598;2022-07-23T02:48:33;99535.36;;;26.88;38.66
51999;BME280;38015;50.924;11.598;2022-07-23T02:51:03;99526.28;;;26.83;38.75
51999;BME280;38015;50.924;11.598;2022-07-23T02:53:33;99510.89;;;26.80;38.89
51999;BME280;38015;50.924;11.598;2022-07-23T02:56:04;99508.83;;;26.81;38.79
51999;BME280;38015;50.924;11.598;2022-07-23T02:58:34;99511.56;;;26.91;38.66
51999;BME280;38015;50.924;11.598;2022-07-23T03:01:04;99505.79;;;26.91;38.53
51999;BME280;38015;50.924;11.598;2022-07-23T03:03:34;99503.08;;;26.87;38.68
51999;BME280;38015;50.924;11.598;2022-07-23T03:06:05;99505.44;;;26.89;38.59
51999;BME280;38015;50.924;11.598;2022-07-23T03:08:35;99512.85;;;26.87;38.61
51999;BME280;38015;50.924;11.598;2022-07-23T03:11:05;99518.47;;;26.87;38.59
51999;BME280;38015;50.924;11.598;2022-07-23T03:13:35;99515.22;;;26.86;38.64
51999;BME280;38015;50.924;11.598;2022-07-23T03:16:06;99514.09;;;26.90;38.56
51999;BME280;38015;50.924;11.598;2022-07-23T03:18:36;99547.88;;;26.89;38.61
51999;BME280;38015;50.924;11.598;2022-07-23T03:21:06;99624.35;;;26.90;38.86
51999;BME280;38015;50.924;11.598;2022-07-23T03:23:36;99665.19;;;26.94;38.74
51999;BME280;38015;50.924;11.598;2022-07-23T03:26:07;99669.81;;;26.94;38.63
51999;BME280;38015;50.924;11.598;2022-07-23T03:28:37;99669.21;;;26.89;38.64
51999;BME280;38015;50.924;11.598;2022-07-23T03:31:07;99668.28;;;26.91;38.65
51999;BME280;38015;50.924;11.598;2022-07-23T03:33:41;99638.19;;;26.84;38.76
51999;BME280;38015;50.924;11.598;2022-07-23T03:36:09;99562.72;;;26.79;38.83
51999;BME280;38015;50.924;11.598;2022-07-23T03:38:38;99545.70;;;26.79;38.74
51999;BME280;38015;50.924;11.598;2022-07-23T03:41:08;99552.02;;;26.79;38.75
51999;BME280;38015;50.924;11.598;2022-07-23T03:43:39;99533.45;;;26.85;39.07
51999;BME280;38015;50.924;11.598;2022-07-23T03:46:09;99525.41;;;26.84;38.62
51999;BME280;38015;50.924;11.598;2022-07-23T03:48:39;99526.49;;;26.88;38.75
51999;BME280;38015;50.924;11.598;2022-07-23T03:51:10;99521.37;;;26.78;38.79
51999;BME280;38015;50.924;11.598;2022-07-23T03:53:40;99503.70;;;26.81;38.70
51999;BME280;38015;50.924;11.598;2022-07-23T03:56:10;99508.77;;;26.78;38.78
51999;BME280;38015;50.924;11.598;2022-07-23T03:58:40;99520.40;;;26.88;38.53
51999;BME280;38015;50.924;11.598;2022-07-23T04:01:11;99529.47;;;26.87;38.63
51999;BME280;38015;50.924;11.598;2022-07-23T04:03:43;99525.10;;;26.88;38.59
51999;BME280;38015;50.924;11.598;2022-07-23T04:06:12;99527.45;;;26.82;38.77
51999;BME280;38015;50.924;11.598;2022-07-23T04:08:42;99534.90;;;26.83;38.64
51999;BME280;38015;50.924;11.598;2022-07-23T04:11:13;99545.38;;;26.87;38.56
51999;BME280;38015;50.924;11.598;2022-07-23T04:13:43;99558.50;;;26.88;38.56
51999;BME280;38015;50.924;11.598;2022-07-23T04:16:13;99581.72;;;26.86;38.61
51999;BME280;38015;50.924;11.598;2022-07-23T04:18:43;99601.24;;;26.88;38.58
51999;BME280;38015;50.924;11.598;2022-07-23T04:21:14;99611.17;;;26.89;38.60
51999;BME280;38015;50.924;11.598;2022-07-23T04:23:44;99596.68;;;26.87;38.61
51999;BME280;38015;50.924;11.598;2022-07-23T04:26:14;99562.90;;;26.74;38.86
51999;BME280;38015;50.924;11.598;2022-07-23T04:28:45;99538.64;;;26.78;38.74
51999;BME280;38015;50.924;11.598;2022-07-23T04:31:15;99529.12;;;26.79;38.72
51999;BME280;38015;50.924;11.598;2022-07-23T04:33:47;99511.57;;;26.79;38.71
51999;BME280;38015;50.924;11.598;2022-07-23T04:36:16;99503.08;;;26.75;38.79
51999;BME280;38015;50.924;11.598;2022-07-23T04:38:46;99515.97;;;26.77;38.76
51999;BME280;38015;50.924;11.598;2022-07-23T04:41:16;99533.40;;;26.79;38.71
51999;BME280;38015;50.924;11.598;2022-07-23T04:43:46;99537.25;;;26.83;38.71
51999;BME280;38015;50.924;11.598;2022-07-23T04:46:16;99528.78;;;26.81;38.65
51999;BME280;38015;50.924;11.598;2022-07-23T04:48:47;99529.89;;;26.83;38.70
51999;BME280;38015;50.924;11.598;2022-07-23T04:51:17;99546.28;;;26.83;38.58
51999;BME280;38015;50.924;11.598;2022-07-23T04:53:47;99555.73;;;26.87;38.51
51999;BME280;38015;50.924;11.598;2022-07-23T04:56:18;99571.89;;;26.86;38.62
51999;BME280;38015;50.924;11.598;2022-07-23T04:58:48;99591.58;;;26.88;38.47
51999;BME280;38015;50.924;11.598;2022-07-23T05:01:18;99582.62;;;26.89;38.64
51999;BME280;38015;50.924;11.598;2022-07-23T05:03:48;99571.08;;;26.90;38.42
51999;BME280;38015;50.924;11.598;2022-07-23T05:06:19;99540.20;;;26.84;38.53
51999;BME280;38015;50.924;11.598;2022-07-23T05:08:51;99525.98;;;26.85;38.52
51999;BME280;38015;50.924;11.598;2022-07-23T05:11:19;99555.77;;;26.89;38.50
51999;BME280;38015;50.924;11.598;2022-07-23T05:13:50;99573.73;;;26.88;38.51
51999;BME280;38015;50.924;11.598;2022-07-23T05:16:20;99580.78;;;26.89;38.66
51999;BME280;38015;50.924;11.598;2022-07-23T05:18:51;99585.30;;;26.87;38.61
51999;BME280;38015;50.924;11.598;2022-07-23T05:21:21;99589.07;;;26.85;38.56
51999;BME280;38015;50.924;11.598;2022-07-23T05:23:51;99590.79;;;26.85;38.56
51999;BME280;38015;50.924;11.598;2022-07-23T05:26:22;99587.74;;;26.83;38.59
51999;BME280;38015;50.924;11.598;2022-07-23T05:28:52;99584.91;;;26.80;38.65
51999;BME280;38015;50.924;11.598;2022-07-23T05:31:22;99581.04;;;26.86;38.55
51999;BME280;38015;50.924;11.598;2022-07-23T05:33:52;99589.61;;;26.88;38.51
51999;BME280;38015;50.924;11.598;2022-07-23T05:36:24;99604.90;;;26.87;38.68
51999;BME280;38015;50.924;11.598;2022-07-23T05:38:53;99605.75;;;26.85;38.61
51999;BME280;38015;50.924;11.598;2022-07-23T05:41:24;99602.94;;;26.83;38.63
51999;BME280;38015;50.924;11.598;2022-07-23T05:43:54;99607.00;;;26.87;38.50
51999;BME280;38015;50.924;11.598;2022-07-23T05:46:25;99600.40;;;26.82;38.64
51999;BME280;38015;50.924;11.598;2022-07-23T05:48:55;99593.31;;;26.79;38.73
51999;BME280;38015;50.924;11.598;2022-07-23T05:51:26;99585.86;;;26.83;38.60
51999;BME280;38015;50.924;11.598;2022-07-23T05:53:56;99586.95;;;26.87;38.56
51999;BME280;38015;50.924;11.598;2022-07-23T05:56:26;99580.66;;;26.79;38.69
51999;BME280;38015;50.924;11.598;2022-07-23T05:58:57;99568.91;;;26.85;38.56
51999;BME280;38015;50.924;11.598;2022-07-23T06:01:27;99555.62;;;26.81;38.70
51999;BME280;38015;50.924;11.598;2022-07-23T06:03:58;99554.05;;;26.77;38.76
51999;BME280;38015;50.924;11.598;2022-07-23T06:06:28;99560.80;;;26.78;38.71
51999;BME280;38015;50.924;11.598;2022-07-23T06:08:58;99577.54;;;26.78;38.80
51999;BME280;38015;50.924;11.598;2022-07-23T06:11:28;99580.89;;;26.85;38.61
51999;BME280;38015;50.924;11.598;2022-07-23T06:13:59;99580.25;;;26.84;38.63
51999;BME280;38015;50.924;11.598;2022-07-23T06:16:29;99586.38;;;26.84;38.57
51999;BME280;38015;50.924;11.598;2022-07-23T06:18:59;99592.92;;;26.82;38.67
51999;BME280;38015;50.924;11.598;2022-07-23T06:21:30;99599.98;;;26.79;38.78
51999;BME280;38015;50.924;11.598;2022-07-23T06:24:00;99603.57;;;26.80;38.72
51999;BME280;38015;50.924;11.598;2022-07-23T06:26:30;99600.18;;;26.79;38.71
51999;BME280;38015;50.924;11.598;2022-07-23T06:29:00;99599.89;;;26.79;38.74
51999;BME280;38015;50.924;11.598;2022-07-23T06:31:31;99594.63;;;26.80;38.79
51999;BME280;38015;50.924;11.598;2022-07-23T06:34:02;99589.13;;;26.77;38.79
51999;BME280;38015;50.924;11.598;2022-07-23T06:36:32;99588.67;;;26.78;38.73
51999;BME280;38015;50.924;11.598;2022-07-23T06:39:03;99592.65;;;26.86;38.58
51999;BME280;38015;50.924;11.598;2022-07-23T06:41:36;99594.73;;;26.80;38.75
51999;BME280;38015;50.924;11.598;2022-07-23T06:44:04;99604.12;;;26.74;38.89
51999;BME280;38015;50.924;11.598;2022-07-23T06:46:34;99608.35;;;26.76;38.82
51999;BME280;38015;50.924;11.598;2022-07-23T06:49:04;99603.41;;;26.77;38.80
51999;BME280;38015;50.924;11.598;2022-07-23T06:51:34;99596.37;;;26.81;38.74
51999;BME280;38015;50.924;11.598;2022-07-23T06:54:05;99588.33;;;26.82;38.67
51999;BME280;38015;50.924;11.598;2022-07-23T06:56:36;99588.40;;;26.90;38.51
51999;BME280;38015;50.924;11.598;2022-07-23T06:59:06;99603.17;;;26.85;38.66
51999;BME280;38015;50.924;11.598;2022-07-23T07:01:36;99616.77;;;26.88;38.52
51999;BME280;38015;50.924;11.598;2022-07-23T07:04:06;99615.75;;;26.90;38.52
51999;BME280;38015;50.924;11.598;2022-07-23T07:06:37;99607.77;;;26.91;38.48
51999;BME280;38015;50.924;11.598;2022-07-23T07:09:07;99607.14;;;26.89;38.67
51999;BME280;38015;50.924;11.598;2022-07-23T07:11:37;99608.34;;;26.90;38.53
51999;BME280;38015;50.924;11.598;2022-07-23T07:14:07;99611.76;;;26.84;38.66
51999;BME280;38015;50.924;11.598;2022-07-23T07:16:38;99621.25;;;26.84;38.68
51999;BME280;38015;50.924;11.598;2022-07-23T07:19:08;99629.06;;;26.88;38.55
51999;BME280;38015;50.924;11.598;2022-07-23T07:21:38;99627.15;;;26.92;38.47
51999;BME280;38015;50.924;11.598;2022-07-23T07:24:08;99631.49;;;26.88;38.60
51999;BME280;38015;50.924;11.598;2022-07-23T07:26:39;99630.50;;;26.84;38.69
51999;BME280;38015;50.924;11.598;2022-07-23T07:29:09;99627.55;;;26.84;38.70
51999;BME280;38015;50.924;11.598;2022-07-23T07:31:39;99629.48;;;26.80;38.80
51999;BME280;38015;50.924;11.598;2022-07-23T07:34:10;99635.42;;;26.80;38.76
51999;BME280;38015;50.924;11.598;2022-07-23T07:36:40;99642.64;;;26.83;38.75
51999;BME280;38015;50.924;11.598;2022-07-23T07:39:10;99644.49;;;26.85;38.65
51999;BME280;38015;50.924;11.598;2022-07-23T07:41:41;99642.73;;;26.86;38.68
51999;BME280;38015;50.924;11.598;2022-07-23T07:44:11;99634.48;;;26.82;38.76
51999;BME280;38015;50.924;11.598;2022-07-23T07:46:41;99633.48;;;26.80;38.78
51999;BME280;38015;50.924;11.598;2022-07-23T07:49:11;99635.76;;;26.80;38.82
51999;BME280;38015;50.924;11.598;2022-07-23T07:51:42;99633.77;;;26.78;38.84
51999;BME280;38015;50.924;11.598;2022-07-23T07:54:12;99631.87;;;26.75;38.92
51999;BME280;38015;50.924;11.598;2022-07-23T07:56:42;99627.91;;;26.74;38.97
51999;BME280;38015;50.924;11.598;2022-07-23T07:59:13;99630.53;;;26.80;38.96
51999;BME280;38015;50.924;11.598;2022-07-23T08:01:44;99632.18;;;26.73;39.04
51999;BME280;38015;50.924;11.598;2022-07-23T08:04:13;99635.90;;;26.65;39.19
51999;BME280;38015;50.924;11.598;2022-07-23T08:06:43;99640.97;;;26.89;38.73
51999;BME280;38015;50.924;11.598;2022-07-23T08:09:14;99636.57;;;26.78;38.97
51999;BME280;38015;50.924;11.598;2022-07-23T08:11:44;99639.46;;;26.76;39.06
51999;BME280;38015;50.924;11.598;2022-07-23T08:14:16;99643.11;;;26.80;38.96
51999;BME280;38015;50.924;11.598;2022-07-23T08:16:45;99647.86;;;26.76;38.99
51999;BME280;38015;50.924;11.598;2022-07-23T08:19:15;99645.84;;;26.74;39.12
51999;BME280;38015;50.924;11.598;2022-07-23T08:21:45;99641.23;;;26.81;38.96
51999;BME280;38015;50.924;11.598;2022-07-23T08:24:16;99642.58;;;26.78;39.33
51999;BME280;38015;50.924;11.598;2022-07-23T08:26:46;99649.73;;;26.75;39.22
51999;BME280;38015;50.924;11.598;2022-07-23T08:29:16;99654.89;;;26.74;39.13
51999;BME280;38015;50.924;11.598;2022-07-23T08:31:47;99655.26;;;26.88;38.77
51999;BME280;38015;50.924;11.598;2022-07-23T08:34:17;99660.75;;;26.87;38.92
51999;BME280;38015;50.924;11.598;2022-07-23T08:36:47;99663.93;;;26.86;38.80
51999;BME280;38015;50.924;11.598;2022-07-23T08:39:19;99668.72;;;26.87;38.80
51999;BME280;38015;50.924;11.598;2022-07-23T08:41:49;99674.17;;;26.86;38.81
51999;BME280;38015;50.924;11.598;2022-07-23T08:44:19;99674.96;;;26.92;38.73
51999;BME280;38015;50.924;11.598;2022-07-23T08:46:49;99673.34;;;26.85;38.91
51999;BME280;38015;50.924;11.598;2022-07-23T08:49:20;99674.53;;;26.96;38.65
51999;BME280;38015;50.924;11.598;2022-07-23T08:51:52;99672.08;;;26.88;38.86
51999;BME280;38015;50.924;11.598;2022-07-23T08:54:21;99667.32;;;26.84;38.85
51999;BME280;38015;50.924;11.598;2022-07-23T08:56:51;99665.20;;;26.83;38.88
51999;BME280;38015;50.924;11.598;2022-07-23T08:59:21;99669.31;;;26.86;38.87
51999;BME280;38015;50.924;11.598;2022-07-23T09:01:51;99669.95;;;26.89;38.77
51999;BME280;38015;50.924;11.598;2022-07-23T09:04:21;99672.34;;;26.92;38.84
51999;BME280;38015;50.924;11.598;2022-07-23T09:06:52;99670.90;;;26.85;39.01
51999;BME280;38015;50.924;11.598;2022-07-23T09:09:22;99667.81;;;26.88;38.98
51999;BME280;38015;50.924;11.598;2022-07-23T09:16:53;99665.09;;;26.82;39.11
51999;BME280;38015;50.924;11.598;2022-07-23T09:19:27;99669.16;;;26.84;39.09
51999;BME280;38015;50.924;11.598;2022-07-23T09:21:53;99670.57;;;26.79;39.25
51999;BME280;38015;50.924;11.598;2022-07-23T09:24:24;99675.80;;;26.88;39.09
51999;BME280;38015;50.924;11.598;2022-07-23T09:26:54;99679.86;;;26.82;39.18
51999;BME280;38015;50.924;11.598;2022-07-23T09:29:26;99677.00;;;26.80;39.29
51999;BME280;38015;50.924;11.598;2022-07-23T09:31:56;99677.78;;;26.75;39.42
51999;BME280;38015;50.924;11.598;2022-07-23T09:34:26;99686.33;;;26.78;39.49
51999;BME280;38015;50.924;11.598;2022-07-23T09:36:57;99690.67;;;26.87;39.24
51999;BME280;38015;50.924;11.598;2022-07-23T09:39:29;99693.58;;;26.92;39.17
51999;BME280;38015;50.924;11.598;2022-07-23T09:41:56;99696.83;;;26.94;39.12
51999;BME280;38015;50.924;11.598;2022-07-23T09:44:26;99699.13;;;26.89;39.17
51999;BME280;38015;50.924;11.598;2022-07-23T09:46:59;99694.83;;;26.89;39.08
51999;BME280;38015;50.924;11.598;2022-07-23T09:49:27;99693.68;;;26.93;39.02
51999;BME280;38015;50.924;11.598;2022-07-23T09:51:59;99696.17;;;26.88;39.11
51999;BME280;38015;50.924;11.598;2022-07-23T09:54:30;99700.17;;;26.96;39.06
51999;BME280;38015;50.924;11.598;2022-07-23T09:56:59;99694.77;;;26.85;39.15
51999;BME280;38015;50.924;11.598;2022-07-23T09:59:29;99692.52;;;26.82;39.40
51999;BME280;38015;50.924;11.598;2022-07-23T10:01:59;99694.90;;;26.92;39.19
51999;BME280;38015;50.924;11.598;2022-07-23T10:04:29;99695.08;;;26.88;39.23
51999;BME280;38015;50.924;11.598;2022-07-23T10:07:02;99693.01;;;26.78;39.59
51999;BME280;38015;50.924;11.598;2022-07-23T10:09:33;99699.05;;;26.85;39.32
51999;BME280;38015;50.924;11.598;2022-07-23T10:12:02;99700.15;;;26.83;39.38
51999;BME280;38015;50.924;11.598;2022-07-23T10:14:30;99708.07;;;26.86;39.37
51999;BME280;38015;50.924;11.598;2022-07-23T10:17:01;99706.31;;;26.88;39.30
51999;BME280;38015;50.924;11.598;2022-07-23T10:19:31;99703.32;;;26.84;39.41
51999;BME280;38015;50.924;11.598;2022-07-23T10:22:04;99700.76;;;26.88;39.68
51999;BME280;38015;50.924;11.598;2022-07-23T10:24:47;99706.58;;;26.91;39.30
51999;BME280;38015;50.924;11.598;2022-07-23T10:27:10;99706.34;;;26.86;39.63
51999;BME280;38015;50.924;11.598;2022-07-23T10:29:42;99705.37;;;26.79;39.74
51999;BME280;38015;50.924;11.598;2022-07-23T10:32:08;99701.66;;;26.78;39.74
51999;BME280;38015;50.924;11.598;2022-07-23T10:34:39;99701.38;;;26.79;39.70
51999;BME280;38015;50.924;11.598;2022-07-23T10:37:12;99703.81;;;26.79;39.79
51999;BME280;38015;50.924;11.598;2022-07-23T10:39:34;99706.76;;;26.76;39.81
51999;BME280;38015;50.924;11.598;2022-07-23T10:42:09;99705.48;;;26.78;39.82
51999;BME280;38015;50.924;11.598;2022-07-23T10:44:39;99703.82;;;26.80;39.76
51999;BME280;38015;50.924;11.598;2022-07-23T10:47:05;99705.11;;;26.84;39.87
51999;BME280;38015;50.924;11.598;2022-07-23T10:49:36;99705.25;;;26.79;40.06
51999;BME280;38015;50.924;11.598;2022-07-23T10:54:36;99704.57;;;26.77;40.01
51999;BME280;38015;50.924;11.598;2022-07-23T10:57:09;99703.79;;;26.82;40.01
51999;BME280;38015;50.924;11.598;2022-07-23T11:04:48;99703.76;;;26.83;39.77
51999;BME280;38015;50.924;11.598;2022-07-23T11:07:08;99703.51;;;26.82;39.87
51999;BME280;38015;50.924;11.598;2022-07-23T11:09:40;99705.99;;;26.81;39.88
51999;BME280;38015;50.924;11.598;2022-07-23T11:17:18;99699.06;;;26.75;39.95
51999;BME280;38015;50.924;11.598;2022-07-23T11:22:19;99695.78;;;26.93;39.69
51999;BME280;38015;50.924;11.598;2022-07-23T11:24:50;99698.86;;;26.96;39.76
51999;BME280;38015;50.924;11.598;2022-07-23T11:27:10;99702.36;;;26.84;40.02
51999;BME280;38015;50.924;11.598;2022-07-23T11:29:43;99707.27;;;26.79;39.96
51999;BME280;38015;50.924;11.598;2022-07-23T11:34:44;99704.08;;;26.87;39.82
51999;BME280;38015;50.924;11.598;2022-07-23T11:39:46;99700.78;;;26.84;40.02
51999;BME280;38015;50.924;11.598;2022-07-23T11:42:18;99701.26;;;26.75;40.09
51999;BME280;38015;50.924;11.598;2022-07-23T11:44:47;99701.67;;;26.88;40.03
51999;BME280;38015;50.924;11.598;2022-07-23T11:47:15;99704.65;;;26.93;40.12
51999;BME280;38015;50.924;11.598;2022-07-23T11:49:51;99706.58;;;26.95;40.06
51999;BME280;38015;50.924;11.598;2022-07-23T11:52:15;99703.04;;;26.86;40.05
51999;BME280;38015;50.924;11.598;2022-07-23T11:54:48;99698.98;;;26.89;39.92
51999;BME280;38015;50.924;11.598;2022-07-23T11:57:17;99697.89;;;26.94;39.64
51999;BME280;38015;50.924;11.598;2022-07-23T11:59:47;99698.88;;;27.02;39.73
51999;BME280;38015;50.924;11.598;2022-07-23T12:02:17;99702.49;;;27.11;39.68
51999;BME280;38015;50.924;11.598;2022-07-23T12:04:49;99703.88;;;27.03;39.67
51999;BME280;38015;50.924;11.598;2022-07-23T12:07:26;99704.99;;;27.03;39.71
51999;BME280;38015;50.924;11.598;2022-07-23T12:09:48;99702.49;;;27.07;39.71
51999;BME280;38015;50.924;11.598;2022-07-23T12:12:19;99700.85;;;27.03;39.65
51999;BME280;38015;50.924;11.598;2022-07-23T12:14:50;99700.80;;;26.97;39.75
51999;BME280;38015;50.924;11.598;2022-07-23T12:17:20;99694.46;;;27.07;39.63
51999;BME280;38015;50.924;11.598;2022-07-23T12:19:50;99695.00;;;26.99;39.78
51999;BME280;38015;50.924;11.598;2022-07-23T12:22:21;99693.41;;;26.91;40.08
51999;BME280;38015;50.924;11.598;2022-07-23T12:24:53;99690.92;;;26.94;39.90
51999;BME280;38015;50.924;11.598;2022-07-23T12:27:22;99689.40;;;26.91;39.96
51999;BME280;38015;50.924;11.598;2022-07-23T12:29:52;99690.59;;;26.95;40.07
51999;BME280;38015;50.924;11.598;2022-07-23T12:32:23;99687.99;;;26.96;39.84
51999;BME280;38015;50.924;11.598;2022-07-23T12:37:27;99686.86;;;26.98;39.67
51999;BME280;38015;50.924;11.598;2022-07-23T12:39:52;99683.84;;;26.95;39.76
51999;BME280;38015;50.924;11.598;2022-07-23T12:42:23;99678.19;;;27.02;39.42
51999;BME280;38015;50.924;11.598;2022-07-23T12:47:23;99670.99;;;27.08;39.15
51999;BME280;38015;50.924;11.598;2022-07-23T12:49:54;99668.07;;;27.15;38.91
51999;BME280;38015;50.924;11.598;2022-07-23T12:52:24;99664.34;;;27.21;38.72
51999;BME280;38015;50.924;11.598;2022-07-23T12:54:55;99662.00;;;27.14;39.84
51999;BME280;38015;50.924;11.598;2022-07-23T13:02:26;99660.82;;;27.28;38.56
51999;BME280;38015;50.924;11.598;2022-07-23T13:04:56;99659.89;;;27.25;38.80
51999;BME280;38015;50.924;11.598;2022-07-23T13:07:28;99659.89;;;27.28;38.42
51999;BME280;38015;50.924;11.598;2022-07-23T13:09:57;99660.85;;;27.34;38.37
51999;BME280;38015;50.924;11.598;2022-07-23T13:12:27;99660.58;;;27.32;38.38
51999;BME280;38015;50.924;11.598;2022-07-23T13:14:57;99659.78;;;27.38;38.13
51999;BME280;38015;50.924;11.598;2022-07-23T13:17:28;99658.73;;;27.34;38.21
51999;BME280;38015;50.924;11.598;2022-07-23T13:19:58;99664.94;;;27.33;38.23
51999;BME280;38015;50.924;11.598;2022-07-23T13:22:29;99665.20;;;27.30;38.36
51999;BME280;38015;50.924;11.598;2022-07-23T13:24:58;99662.94;;;27.34;38.21
51999;BME280;38015;50.924;11.598;2022-07-23T13:27:29;99665.19;;;27.38;38.13
51999;BME280;38015;50.924;11.598;2022-07-23T13:29:59;99667.81;;;27.33;38.25
51999;BME280;38015;50.924;11.598;2022-07-23T13:32:30;99666.62;;;27.36;38.17
51999;BME280;38015;50.924;11.598;2022-07-23T13:35:00;99661.01;;;27.42;37.95
51999;BME280;38015;50.924;11.598;2022-07-23T13:37:30;99654.85;;;27.41;37.99
51999;BME280;38015;50.924;11.598;2022-07-23T13:40:01;99652.31;;;27.37;38.12